createdAt,value
2019-03-05T00:01:33.588Z,94508.76
2019-03-05T00:03:59.987Z,94509.81
2019-03-05T00:06:26.324Z,94502.48
2019-03-05T00:08:52.701Z,94505.84
2019-03-05T00:11:19.020Z,94490.59
2019-03-05T00:13:45.353Z,94482.90
2019-03-05T00:16:11.726Z,94485.47
2019-03-05T00:18:38.132Z,94487.66
2019-03-05T00:21:04.550Z,94490.36
2019-03-05T00:23:33.701Z,94480.92
2019-03-05T00:26:00.087Z,94478.46
2019-03-05T00:28:26.420Z,94479.38
2019-03-05T00:30:52.787Z,94478.92
2019-03-05T00:33:19.181Z,94477.18
2019-03-05T00:35:45.568Z,94480.92
2019-03-05T00:38:11.910Z,94492.91
2019-03-05T00:40:38.250Z,94481.94
2019-03-05T00:43:04.589Z,94484.17
2019-03-05T00:45:30.945Z,94477.31
2019-03-05T00:47:57.334Z,94473.20
2019-03-05T00:50:23.731Z,94477.64
2019-03-05T00:52:50.060Z,94483.22
2019-03-05T00:55:16.405Z,94479.14
2019-03-05T00:57:42.746Z,94482.98
2019-03-05T01:00:09.239Z,94484.73
2019-03-05T01:02:35.566Z,94492.41
2019-03-05T01:05:01.908Z,94490.12
2019-03-05T01:07:28.261Z,94480.66
2019-03-05T01:09:54.668Z,94486.59
2019-03-05T01:12:21.003Z,94487.66
2019-03-05T01:14:47.357Z,94497.80
2019-03-05T01:17:13.687Z,94499.55
2019-03-05T01:19:40.205Z,94500.70
2019-03-05T01:22:06.552Z,94493.77
2019-03-05T01:24:32.936Z,94481.17
2019-03-05T01:26:59.278Z,94489.59
2019-03-05T01:29:25.721Z,94478.28
2019-03-05T01:31:52.013Z,94470.95
2019-03-05T01:34:18.390Z,94476.68
2019-03-05T01:36:44.805Z,94477.96
2019-03-05T01:39:11.149Z,94478.06
2019-03-05T01:41:37.498Z,94475.77
2019-03-05T01:44:03.880Z,94467.48
2019-03-05T01:46:30.222Z,94462.58
2019-03-05T01:48:56.564Z,94469.91
2019-03-05T01:51:22.908Z,94475.63
2019-03-05T01:53:49.250Z,94464.45
2019-03-05T01:56:15.659Z,94455.98
2019-03-05T01:58:42.033Z,94450.45
2019-03-05T02:01:08.397Z,94448.19
2019-03-05T02:03:34.714Z,94446.91
2019-03-05T02:06:01.106Z,94440.27
2019-03-05T02:08:27.574Z,94442.34
2019-03-05T02:10:53.978Z,94441.77
2019-03-05T02:13:20.329Z,94423.23
2019-03-05T02:15:46.667Z,94420.69
2019-03-05T02:18:13.070Z,94437.94
2019-03-05T02:20:39.483Z,94425.70
2019-03-05T02:23:05.953Z,94429.54
2019-03-05T02:25:32.235Z,94424.77
2019-03-05T02:27:58.582Z,94422.07
2019-03-05T02:30:24.968Z,94434.09
2019-03-05T02:32:51.418Z,94427.09
2019-03-05T02:35:17.756Z,94422.18
2019-03-05T02:37:44.124Z,94430.92
2019-03-05T02:40:10.612Z,94431.64
2019-03-05T02:42:36.954Z,94434.53
2019-03-05T02:45:03.296Z,94432.91
2019-03-05T02:47:29.767Z,94418.91
2019-03-05T02:49:56.016Z,94427.31
2019-03-05T02:52:22.389Z,94424.51
2019-03-05T02:54:48.772Z,94409.11
2019-03-05T02:57:15.162Z,94407.83
2019-03-05T02:59:41.512Z,94414.01
2019-03-05T03:02:07.867Z,94417.51
2019-03-05T03:04:34.204Z,94416.91
2019-03-05T03:07:00.557Z,94413.42
2019-03-05T03:09:26.905Z,94397.52
2019-03-05T03:11:53.296Z,94408.51
2019-03-05T03:14:19.572Z,94428.12
2019-03-05T03:16:45.950Z,94411.30
2019-03-05T03:19:12.305Z,94417.25
2019-03-05T03:21:38.746Z,94437.65
2019-03-05T03:24:05.101Z,94451.89
2019-03-05T03:26:31.429Z,94437.30
2019-03-05T03:28:59.036Z,94434.38
2019-03-05T03:31:24.133Z,94434.27
2019-03-05T03:33:50.471Z,94440.95
2019-03-05T03:36:16.860Z,94464.52
2019-03-05T03:38:43.293Z,94461.70
2019-03-05T03:41:09.623Z,94465.23
2019-03-05T03:43:35.952Z,94457.61
2019-03-05T03:46:02.294Z,94451.09
2019-03-05T03:48:28.645Z,94449.34
2019-03-05T03:50:54.989Z,94460.98
2019-03-05T03:53:21.344Z,94458.06
2019-03-05T03:55:47.703Z,94461.45
2019-03-05T03:58:14.215Z,94471.24
2019-03-05T04:00:40.552Z,94457.94
2019-03-05T04:03:06.900Z,94476.82
2019-03-05T04:05:33.253Z,94481.39
2019-03-05T04:07:59.602Z,94482.42
2019-03-05T04:10:25.983Z,94483.47
2019-03-05T04:12:52.323Z,94483.00
2019-03-05T04:15:18.703Z,94489.33
2019-03-05T04:17:45.041Z,94470.14
2019-03-05T04:20:11.502Z,94482.91
2019-03-05T04:22:37.859Z,94485.09
2019-03-05T04:25:04.202Z,94474.78
2019-03-05T04:27:30.542Z,94480.55
2019-03-05T04:29:56.910Z,94486.34
2019-03-05T04:32:23.942Z,94491.13
2019-03-05T04:34:49.787Z,94493.09
2019-03-05T04:37:16.226Z,94491.24
2019-03-05T04:39:42.570Z,94490.77
2019-03-05T04:42:08.917Z,94499.03
2019-03-05T04:44:35.263Z,94493.78
2019-03-05T04:47:01.608Z,94495.75
2019-03-05T04:49:28.017Z,94497.39
2019-03-05T04:51:54.360Z,94506.74
2019-03-05T04:54:20.704Z,94510.81
2019-03-05T04:56:47.042Z,94513.14
2019-03-05T04:59:13.395Z,94519.78
2019-03-05T05:01:39.714Z,94515.33
2019-03-05T05:04:06.025Z,94524.25
2019-03-05T05:06:32.391Z,94517.81
2019-03-05T05:08:58.767Z,94527.03
2019-03-05T05:11:25.115Z,94517.68
2019-03-05T05:13:51.447Z,94518.72
2019-03-05T05:16:17.778Z,94528.75
2019-03-05T05:18:44.159Z,94529.33
2019-03-05T05:21:10.490Z,94517.97
2019-03-05T05:23:36.810Z,94525.58
2019-03-05T05:26:03.143Z,94527.89
2019-03-05T05:28:29.462Z,94535.36
2019-03-05T05:30:55.851Z,94531.36
2019-03-05T05:33:22.179Z,94519.43
2019-03-05T05:35:48.567Z,94514.50
2019-03-05T05:38:14.982Z,94521.60
2019-03-05T05:40:41.367Z,94530.93
2019-03-05T05:43:07.801Z,94535.25
2019-03-05T05:45:34.150Z,94532.63
2019-03-05T05:48:00.526Z,94535.42
2019-03-05T05:50:26.845Z,94550.61
2019-03-05T05:52:53.217Z,94541.80
2019-03-05T05:55:19.548Z,94541.70
2019-03-05T05:57:45.868Z,94534.44
2019-03-05T06:00:12.236Z,94528.21
2019-03-05T06:02:38.586Z,94538.96
2019-03-05T06:05:05.000Z,94540.45
2019-03-05T06:07:31.457Z,94534.83
2019-03-05T06:09:57.860Z,94531.90
2019-03-05T06:12:24.217Z,94550.02
2019-03-05T06:14:50.547Z,94560.83
2019-03-05T06:17:16.935Z,94557.63
2019-03-05T06:19:43.306Z,94557.58
2019-03-05T06:22:09.751Z,94554.59
2019-03-05T06:24:36.197Z,94551.23
2019-03-05T06:27:02.726Z,94553.35
2019-03-05T06:29:29.136Z,94556.75
2019-03-05T06:31:55.518Z,94556.17
2019-03-05T06:34:21.896Z,94567.50
2019-03-05T06:36:48.234Z,94561.41
2019-03-05T06:39:14.673Z,94574.47
2019-03-05T06:41:41.005Z,94586.19
2019-03-05T06:44:09.384Z,94590.94
2019-03-05T06:46:33.775Z,94585.52
2019-03-05T06:49:02.605Z,94577.94
2019-03-05T06:51:29.090Z,94588.86
2019-03-05T06:53:55.454Z,94576.49
2019-03-05T06:56:21.831Z,94592.10
2019-03-05T06:58:48.183Z,94592.39
2019-03-05T07:01:14.546Z,94591.19
2019-03-05T07:03:41.057Z,94585.38
2019-03-05T07:06:07.410Z,94582.30
2019-03-05T07:08:36.199Z,94592.20
2019-03-05T07:11:02.599Z,94597.13
2019-03-05T07:13:28.930Z,94600.70
2019-03-05T07:15:55.288Z,94602.82
2019-03-05T07:18:23.785Z,94600.36
2019-03-05T07:20:50.199Z,94611.23
2019-03-05T07:23:16.484Z,94609.32
2019-03-05T07:25:42.835Z,94599.82
2019-03-05T07:28:09.226Z,94599.34
2019-03-05T07:30:36.936Z,94593.72
2019-03-05T07:33:01.996Z,94599.27
2019-03-05T07:35:28.340Z,94600.84
2019-03-05T07:37:54.670Z,94599.75
2019-03-05T07:40:21.061Z,94592.94
2019-03-05T07:42:47.569Z,94590.91
2019-03-05T07:45:13.919Z,94605.91
2019-03-05T07:47:40.322Z,94610.59
2019-03-05T07:50:08.901Z,94614.75
2019-03-05T07:52:35.231Z,94627.85
2019-03-05T07:55:12.981Z,94623.98
2019-03-05T07:57:27.951Z,94599.66
2019-03-05T07:59:54.300Z,94609.11
2019-03-05T08:02:20.623Z,94611.30
2019-03-05T08:04:46.961Z,94610.39
2019-03-05T08:07:13.285Z,94602.25
2019-03-05T08:09:39.641Z,94600.14
2019-03-05T08:12:05.987Z,94600.08
2019-03-05T08:14:34.583Z,94601.22
2019-03-05T08:17:01.003Z,94599.77
2019-03-05T08:19:27.313Z,94595.90
2019-03-05T08:21:53.675Z,94600.82
2019-03-05T08:24:20.067Z,94602.36
2019-03-05T08:26:46.832Z,94599.86
2019-03-05T08:29:13.555Z,94600.66
2019-03-05T08:31:39.904Z,94601.53
2019-03-05T08:34:06.334Z,94602.52
2019-03-05T08:36:32.675Z,94601.95
2019-03-05T08:38:59.107Z,94595.23
2019-03-05T08:41:25.462Z,94594.92
2019-03-05T08:43:54.229Z,94596.31
2019-03-05T08:46:18.166Z,94598.52
2019-03-05T08:48:44.552Z,94599.69
2019-03-05T08:51:10.890Z,94597.31
2019-03-05T08:53:37.231Z,94607.13
2019-03-05T08:56:03.621Z,94607.59
2019-03-05T08:58:29.957Z,94600.91
2019-03-05T09:00:56.403Z,94593.56
2019-03-05T09:03:22.801Z,94597.95
2019-03-05T09:05:49.149Z,94598.67
2019-03-05T09:08:15.501Z,94585.34
2019-03-05T09:10:42.007Z,94595.05
2019-03-05T09:13:08.413Z,94590.52
2019-03-05T09:15:34.724Z,94586.77
2019-03-05T09:18:01.133Z,94579.30
2019-03-05T09:20:27.541Z,94584.88
2019-03-05T09:22:53.913Z,94582.58
2019-03-05T09:25:20.306Z,94581.22
2019-03-05T09:27:46.710Z,94589.48
2019-03-05T09:30:12.996Z,94583.89
2019-03-05T09:32:39.501Z,94580.11
2019-03-05T09:35:05.845Z,94582.06
2019-03-05T09:37:32.176Z,94582.64
2019-03-05T09:39:58.514Z,94580.97
2019-03-05T09:42:25.053Z,94590.84
2019-03-05T09:44:51.432Z,94586.50
2019-03-05T09:47:17.812Z,94588.87
2019-03-05T09:49:44.162Z,94591.41
2019-03-05T09:52:10.535Z,94578.08
2019-03-05T09:54:36.946Z,94577.14
2019-03-05T09:57:03.301Z,94579.37
2019-03-05T09:59:29.690Z,94576.52
2019-03-05T10:01:56.028Z,94579.77
2019-03-05T10:04:22.636Z,94568.97
2019-03-05T10:06:48.958Z,94562.67
2019-03-05T10:09:15.327Z,94562.67
2019-03-05T10:11:41.704Z,94567.77
2019-03-05T10:14:08.059Z,94561.11
2019-03-05T10:16:34.407Z,94561.93
2019-03-05T10:19:00.906Z,94551.73
2019-03-05T10:21:27.247Z,94556.30
2019-03-05T10:23:53.577Z,94554.23
2019-03-05T10:26:19.982Z,94552.00
2019-03-05T10:28:46.342Z,94559.13
2019-03-05T10:31:12.719Z,94549.16
2019-03-05T10:33:39.079Z,94540.67
2019-03-05T10:36:05.411Z,94540.87
2019-03-05T10:38:31.757Z,94542.78
2019-03-05T10:40:58.122Z,94542.58
2019-03-05T10:43:24.471Z,94542.58
2019-03-05T10:45:50.789Z,94548.33
2019-03-05T10:48:17.223Z,94540.94
2019-03-05T10:50:43.452Z,94539.73
2019-03-05T10:53:09.817Z,94534.61
2019-03-05T10:55:36.178Z,94523.00
2019-03-05T10:58:02.512Z,94525.92
2019-03-05T11:00:28.847Z,94508.21
2019-03-05T11:02:55.200Z,94519.20
2019-03-05T11:05:21.549Z,94521.47
2019-03-05T11:07:47.891Z,94513.78
2019-03-05T11:10:14.348Z,94508.32
2019-03-05T11:12:40.714Z,94505.98
2019-03-05T11:15:07.044Z,94494.85
2019-03-05T11:17:33.463Z,94495.92
2019-03-05T11:19:59.794Z,94487.84
2019-03-05T11:22:26.221Z,94498.08
2019-03-05T11:24:52.641Z,94486.09
2019-03-05T11:27:19.012Z,94480.86
2019-03-05T11:29:45.376Z,94479.56
2019-03-05T11:32:13.705Z,94478.12
2019-03-05T11:34:40.116Z,94477.80
2019-03-05T11:37:06.500Z,94475.42
2019-03-05T11:39:32.878Z,94477.52
2019-03-05T11:41:59.212Z,94472.48
2019-03-05T11:44:25.548Z,94470.05
2019-03-05T11:46:51.999Z,94474.95
2019-03-05T11:49:18.321Z,94469.09
2019-03-05T11:51:44.679Z,94469.63
2019-03-05T11:54:11.003Z,94479.12
2019-03-05T11:56:37.368Z,94477.18
2019-03-05T11:59:03.698Z,94476.30
2019-03-05T12:01:30.160Z,94474.47
2019-03-05T12:03:56.504Z,94474.04
2019-03-05T12:06:22.841Z,94471.45
2019-03-05T12:08:49.215Z,94470.80
2019-03-05T12:11:15.525Z,94470.80
2019-03-05T12:13:41.873Z,94468.62
2019-03-05T12:16:08.346Z,94465.98
2019-03-05T12:18:34.764Z,94468.41
2019-03-05T12:21:01.154Z,94469.22
2019-03-05T12:23:27.495Z,94472.84
2019-03-05T12:25:53.874Z,94472.48
2019-03-05T12:28:20.206Z,94470.25
2019-03-05T12:30:46.677Z,94476.80
2019-03-05T12:33:13.038Z,94471.00
2019-03-05T12:35:39.362Z,94474.52
2019-03-05T12:38:05.856Z,94467.94
2019-03-05T12:40:32.279Z,94470.98
2019-03-05T12:42:58.640Z,94474.86
2019-03-05T12:45:25.123Z,94483.14
2019-03-05T12:47:51.518Z,94481.19
2019-03-05T12:50:17.838Z,94481.03
2019-03-05T12:52:44.423Z,94487.36
2019-03-05T12:55:10.699Z,94485.07
2019-03-05T12:57:38.239Z,94477.35
2019-03-05T13:00:04.595Z,94485.09
2019-03-05T13:02:30.923Z,94478.86
2019-03-05T13:04:57.257Z,94477.14
2019-03-05T13:07:23.673Z,94478.90
2019-03-05T13:09:52.639Z,94473.08
2019-03-05T13:12:16.393Z,94474.75
2019-03-05T13:14:43.815Z,94470.34
2019-03-05T13:17:09.087Z,94473.68
2019-03-05T13:19:35.438Z,94480.16
2019-03-05T13:22:01.766Z,94476.47
2019-03-05T13:24:28.127Z,94479.38
2019-03-05T13:26:54.459Z,94480.98
2019-03-05T13:29:20.810Z,94478.41
2019-03-05T13:31:47.171Z,94478.41
2019-03-05T13:34:14.039Z,94470.06
2019-03-05T13:36:39.907Z,94478.75
2019-03-05T13:39:06.239Z,94476.52
2019-03-05T13:41:32.611Z,94481.14
2019-03-05T13:43:59.000Z,94476.73
2019-03-05T13:46:28.649Z,94480.23
2019-03-05T13:48:58.467Z,94484.60
2019-03-05T13:51:23.067Z,94490.71
2019-03-05T13:53:44.811Z,94469.55
2019-03-05T13:56:12.102Z,94487.03
2019-03-05T13:58:37.480Z,94480.19
2019-03-05T14:01:03.865Z,94473.49
2019-03-05T14:03:30.203Z,94483.06
2019-03-05T14:05:56.543Z,94473.02
2019-03-05T14:08:22.984Z,94479.35
2019-03-05T14:10:49.292Z,94483.54
2019-03-05T14:13:15.637Z,94482.87
2019-03-05T14:15:42.012Z,94483.13
2019-03-05T14:18:08.442Z,94488.42
2019-03-05T14:20:35.318Z,94482.94
2019-03-05T14:23:03.893Z,94483.19
2019-03-05T14:25:30.265Z,94490.19
2019-03-05T14:27:56.644Z,94481.21
2019-03-05T14:30:22.990Z,94481.90
2019-03-05T14:32:49.361Z,94480.02
2019-03-05T14:35:15.784Z,94488.36
2019-03-05T14:37:42.153Z,94492.36
2019-03-05T14:40:23.734Z,94499.44
2019-03-05T14:42:34.790Z,94499.00
2019-03-05T14:45:01.249Z,94502.12
2019-03-05T14:47:27.567Z,94496.10
2019-03-05T14:49:53.878Z,94496.42
2019-03-05T14:52:20.217Z,94495.16
2019-03-05T14:54:46.582Z,94497.52
2019-03-05T14:57:12.958Z,94489.84
2019-03-05T14:59:39.355Z,94493.36
2019-03-05T15:02:05.717Z,94488.39
2019-03-05T15:04:32.065Z,94484.48
2019-03-05T15:06:58.383Z,94487.35
2019-03-05T15:09:24.746Z,94477.05
2019-03-05T15:11:51.242Z,94480.08
2019-03-05T15:14:17.454Z,94473.75
2019-03-05T15:16:43.909Z,94478.09
2019-03-05T15:19:20.978Z,94481.21
2019-03-05T15:21:36.544Z,94485.11
2019-03-05T15:24:02.885Z,94484.83
2019-03-05T15:26:29.259Z,94485.80
2019-03-05T15:28:56.702Z,94486.59
2019-03-05T15:31:22.074Z,94494.23
2019-03-05T15:33:48.446Z,94487.69
2019-03-05T15:36:23.695Z,94488.04
2019-03-05T15:38:41.107Z,94488.64
2019-03-05T15:41:09.831Z,94483.09
2019-03-05T15:43:36.193Z,94492.95
2019-03-05T15:46:02.578Z,94493.30
2019-03-05T15:48:28.937Z,94500.03
2019-03-05T15:50:55.239Z,94498.30
2019-03-05T15:53:21.581Z,94497.23
2019-03-05T15:55:47.935Z,94503.77
2019-03-05T15:58:14.279Z,94504.71
2019-03-05T16:00:40.646Z,94504.71
2019-03-05T16:03:07.023Z,94506.82
2019-03-05T16:05:33.400Z,94513.20
2019-03-05T16:08:01.021Z,94518.64
2019-03-05T16:10:26.066Z,94522.46
2019-03-05T16:12:52.564Z,94528.84
2019-03-05T16:15:19.001Z,94523.06
2019-03-05T16:17:45.393Z,94530.22
2019-03-05T16:20:11.785Z,94537.14
2019-03-05T16:22:38.136Z,94540.73
2019-03-05T16:25:04.486Z,94551.45
2019-03-05T16:27:31.452Z,94551.80
2019-03-05T16:29:57.271Z,94550.80
2019-03-05T16:32:26.841Z,94553.09
2019-03-05T16:34:49.935Z,94552.75
2019-03-05T16:37:16.258Z,94559.20
2019-03-05T16:39:42.637Z,94572.84
2019-03-05T16:42:09.027Z,94574.56
2019-03-05T16:44:36.070Z,94580.78
2019-03-05T16:47:01.759Z,94585.39
2019-03-05T16:49:28.133Z,94593.41
2019-03-05T16:51:54.453Z,94592.58
2019-03-05T16:54:20.792Z,94597.31
2019-03-05T16:56:47.130Z,94601.06
2019-03-05T16:59:13.465Z,94606.81
2019-03-05T17:01:39.856Z,94611.69
2019-03-05T17:04:06.170Z,94623.79
2019-03-05T17:06:32.495Z,94630.82
2019-03-05T17:08:58.836Z,94629.05
2019-03-05T17:11:25.157Z,94635.95
2019-03-05T17:13:51.489Z,94640.30
2019-03-05T17:16:17.879Z,94643.95
2019-03-05T17:18:44.206Z,94648.91
2019-03-05T17:21:10.532Z,94650.81
2019-03-05T17:23:36.909Z,94652.34
2019-03-05T17:26:03.275Z,94653.62
2019-03-05T17:28:29.644Z,94652.48
2019-03-05T17:30:55.998Z,94639.94
2019-03-05T17:33:22.337Z,94654.30
2019-03-05T17:35:48.668Z,94661.33
2019-03-05T17:38:14.997Z,94658.69
2019-03-05T17:40:41.424Z,94671.89
2019-03-05T17:43:07.730Z,94670.75
2019-03-05T17:45:34.062Z,94670.40
2019-03-05T17:48:00.389Z,94671.84
2019-03-05T17:50:26.756Z,94670.36
2019-03-05T17:52:53.052Z,94671.03
2019-03-05T17:55:24.564Z,94671.30
2019-03-05T17:57:45.759Z,94682.09
2019-03-05T18:00:12.086Z,94685.20
2019-03-05T18:02:38.416Z,94684.70
2019-03-05T18:05:04.728Z,94689.86
2019-03-05T18:07:31.061Z,94694.30
2019-03-05T18:09:57.394Z,94692.53
2019-03-05T18:12:23.766Z,94703.30
2019-03-05T18:14:50.137Z,94687.97
2019-03-05T18:17:16.449Z,94696.86
2019-03-05T18:19:42.776Z,94701.55
2019-03-05T18:22:09.160Z,94702.83
2019-03-05T18:24:35.515Z,94706.08
2019-03-05T18:27:01.843Z,94706.58
2019-03-05T18:29:28.201Z,94710.77
2019-03-05T18:31:54.572Z,94710.30
2019-03-05T18:34:20.909Z,94708.55
2019-03-05T18:36:47.279Z,94710.30
2019-03-05T18:39:13.616Z,94713.81
2019-03-05T18:41:41.330Z,94715.11
2019-03-05T18:44:06.302Z,94720.88
2019-03-05T18:46:32.691Z,94722.52
2019-03-05T18:48:59.021Z,94724.38
2019-03-05T18:51:25.351Z,94725.67
2019-03-05T18:53:51.739Z,94729.53
2019-03-05T18:56:18.032Z,94735.77
2019-03-05T18:58:44.362Z,94736.23
2019-03-05T19:01:10.787Z,94737.88
2019-03-05T19:03:37.071Z,94750.77
2019-03-05T19:06:03.407Z,94747.36
2019-03-05T19:08:29.771Z,94748.77
2019-03-05T19:10:56.121Z,94747.94
2019-03-05T19:13:22.492Z,94757.28
2019-03-05T19:15:48.845Z,94758.72
2019-03-05T19:18:15.295Z,94757.28
2019-03-05T19:20:41.626Z,94757.20
2019-03-05T19:23:08.059Z,94757.41
2019-03-05T19:25:34.347Z,94755.91
2019-03-05T19:28:00.729Z,94757.67
2019-03-05T19:30:27.139Z,94759.86
2019-03-05T19:32:53.593Z,94763.41
2019-03-05T19:35:19.917Z,94769.73
2019-03-05T19:37:46.214Z,94770.17
2019-03-05T19:40:12.646Z,94767.27
2019-03-05T19:42:38.916Z,94768.09
2019-03-05T19:45:05.340Z,94778.39
2019-03-05T19:47:31.670Z,94780.73
2019-03-05T19:49:58.028Z,94785.41
2019-03-05T19:52:24.362Z,94794.44
2019-03-05T19:54:50.699Z,94797.37
2019-03-05T19:57:17.036Z,94807.67
2019-03-05T19:59:43.362Z,94807.78
2019-03-05T20:02:09.720Z,94814.72
2019-03-05T20:04:36.088Z,94817.77
2019-03-05T20:07:02.441Z,94823.25
2019-03-05T20:09:28.769Z,94825.36
2019-03-05T20:11:55.119Z,94829.58
2019-03-05T20:14:21.557Z,94827.47
2019-03-05T20:16:49.903Z,94832.77
2019-03-05T20:19:14.258Z,94834.84
2019-03-05T20:21:40.591Z,94840.95
2019-03-05T20:24:06.976Z,94842.82
2019-03-05T20:26:33.304Z,94838.95
2019-03-05T20:28:59.688Z,94835.45
2019-03-05T20:31:26.057Z,94841.53
2019-03-05T20:33:52.365Z,94848.80
2019-03-05T20:36:18.693Z,94849.98
2019-03-05T20:38:45.059Z,94854.41
2019-03-05T20:41:11.420Z,94860.03
2019-03-05T20:43:37.749Z,94860.39
2019-03-05T20:46:04.089Z,94868.95
2019-03-05T20:48:30.414Z,94874.92
2019-03-05T20:50:56.763Z,94868.95
2019-03-05T20:53:23.135Z,94873.42
2019-03-05T20:55:49.641Z,94870.84
2019-03-05T20:58:16.082Z,94877.14
2019-03-05T21:00:42.412Z,94877.14
2019-03-05T21:03:08.742Z,94879.25
2019-03-05T21:05:35.070Z,94885.34
2019-03-05T21:08:01.392Z,94891.78
2019-03-05T21:10:27.725Z,94895.92
2019-03-05T21:12:54.125Z,94906.80
2019-03-05T21:15:20.461Z,94920.15
2019-03-05T21:17:46.884Z,94927.52
2019-03-05T21:20:13.221Z,94940.78
2019-03-05T21:22:39.552Z,94948.86
2019-03-05T21:25:05.948Z,94959.55
2019-03-05T21:27:32.320Z,94970.42
2019-03-05T21:29:58.660Z,94984.83
2019-03-05T21:32:24.996Z,94985.20
2019-03-05T21:34:51.327Z,94985.08
2019-03-05T21:37:17.719Z,94982.27
2019-03-05T21:39:44.057Z,94977.36
2019-03-05T21:42:10.535Z,94977.70
2019-03-05T21:44:36.922Z,94976.66
2019-03-05T21:47:03.260Z,94977.72
2019-03-05T21:49:29.631Z,94972.30
2019-03-05T21:51:55.921Z,94972.55
2019-03-05T21:54:22.257Z,94975.48
2019-03-05T21:56:48.635Z,94977.23
2019-03-05T21:59:14.963Z,94988.23
2019-03-05T22:01:41.294Z,94989.62
2019-03-05T22:04:07.632Z,94967.52
2019-03-05T22:06:33.955Z,94956.13
2019-03-05T22:09:00.326Z,94947.13
2019-03-05T22:11:26.708Z,94943.38
2019-03-05T22:13:53.144Z,94952.98
2019-03-05T22:16:19.472Z,94970.89
2019-03-05T22:18:45.807Z,94976.50
2019-03-05T22:21:12.138Z,94969.94
2019-03-05T22:23:38.501Z,94975.68
2019-03-05T22:26:04.850Z,94975.09
2019-03-05T22:28:31.187Z,94985.95
2019-03-05T22:30:57.511Z,94991.55
2019-03-05T22:33:23.855Z,94991.55
2019-03-05T22:35:50.221Z,94996.83
2019-03-05T22:38:16.525Z,95000.79
2019-03-05T22:40:42.856Z,94991.91
2019-03-05T22:43:09.210Z,94989.11
2019-03-05T22:45:35.539Z,94987.55
2019-03-05T22:48:01.876Z,94993.66
2019-03-05T22:50:28.205Z,94995.88
2019-03-05T22:52:54.581Z,95000.55
2019-03-05T22:55:20.928Z,94995.51
2019-03-05T22:57:47.383Z,95005.56
2019-03-05T23:00:13.769Z,95003.13
2019-03-05T23:02:40.075Z,95006.62
2019-03-05T23:05:06.410Z,95005.80
2019-03-05T23:07:32.834Z,95009.28
2019-03-05T23:09:59.158Z,95002.53
2019-03-05T23:12:25.499Z,95004.83
2019-03-05T23:14:51.862Z,95010.47
2019-03-05T23:17:18.192Z,95006.84
2019-03-05T23:19:44.575Z,95013.27
2019-03-05T23:22:10.970Z,95013.37
2019-03-05T23:24:37.260Z,95015.02
2019-03-05T23:27:03.589Z,95020.39
2019-03-05T23:29:30.009Z,95013.95
2019-03-05T23:31:56.361Z,95014.52
2019-03-05T23:34:22.685Z,95017.91
2019-03-05T23:36:49.024Z,95020.70
2019-03-05T23:39:15.390Z,95022.13
2019-03-05T23:41:41.753Z,95025.16
2019-03-05T23:44:08.049Z,95018.36
2019-03-05T23:46:34.421Z,95022.68
2019-03-05T23:49:00.694Z,95026.66
2019-03-05T23:51:27.069Z,95019.75
2019-03-05T23:53:53.416Z,95018.13
2019-03-05T23:56:19.749Z,95017.89
2019-03-05T23:58:46.079Z,95007.70
